Time;durP1;ratioP1;P1;durP2;ratioP2;P2;SDS_P1;SDS_P2;PMS_P1;PMS_P2;Temp;Humidity;BMP_temperature;BMP_pressure;BME280_temperature;BME280_humidity;BME280_pressure;Samples;Min_cycle;Max_cycle;Signal;HPM_P1;HPM_P2
2022/07/18 00:01:32;;;;;;;4.78;3.42;;;;;;;23.47;42.72;102453.19;5085232;28;20039;-60
2022/07/18 00:03:58;;;;;;;5.10;3.17;;;;;;;23.28;42.77;102427.13;5083467;28;20028;-60
2022/07/18 00:06:23;;;;;;;5.18;3.90;;;;;;;23.47;42.99;102457.75;5085264;28;20051;-60
2022/07/18 00:08:49;;;;;;;5.90;3.47;;;;;;;23.25;42.91;102418.47;5066763;28;20044;-61
2022/07/18 00:11:14;;;;;;;5.22;3.70;;;;;;;23.46;42.68;102454.19;5070620;28;20029;-61
2022/07/18 00:13:39;;;;;;;5.45;3.63;;;;;;;23.46;42.79;102459.63;5063390;28;20035;-60
2022/07/18 00:16:05;;;;;;;4.32;3.22;;;;;;;23.44;42.72;102451.63;5063866;28;20029;-61
2022/07/18 00:18:30;;;;;;;5.15;3.40;;;;;;;23.45;42.90;102452.50;5064311;28;20027;-61
2022/07/18 00:20:56;;;;;;;4.07;3.45;;;;;;;23.44;43.02;102448.91;5063787;28;20029;-61
2022/07/18 00:23:21;;;;;;;5.38;3.88;;;;;;;23.43;43.01;102452.66;5046892;28;20025;-60
2022/07/18 00:25:46;;;;;;;8.05;4.25;;;;;;;23.42;43.05;102448.25;5064952;28;20079;-60
2022/07/18 00:28:11;;;;;;;5.18;3.50;;;;;;;23.39;42.95;102439.56;5063448;28;20470;-60
2022/07/18 00:30:38;;;;;;;5.00;3.40;;;;;;;23.19;42.83;102412.66;5064885;28;20017;-60
2022/07/18 00:33:03;;;;;;;5.72;3.78;;;;;;;23.41;43.13;102442.97;5064345;28;20017;-60
2022/07/18 00:35:29;;;;;;;4.13;3.35;;;;;;;23.41;43.01;102440.28;5046968;28;20113;-60
2022/07/18 00:37:54;;;;;;;5.10;3.42;;;;;;;23.40;43.13;102428.53;5063215;28;20025;-60
2022/07/18 00:40:19;;;;;;;4.82;3.53;;;;;;;23.39;42.71;102431.41;5064529;28;20029;-59
2022/07/18 00:42:45;;;;;;;4.90;3.67;;;;;;;23.40;42.86;102433.13;5067039;28;20021;-59
2022/07/18 00:45:10;;;;;;;7.40;3.55;;;;;;;23.35;43.08;102421.91;5067660;28;20067;-60
2022/07/18 00:47:35;;;;;;;4.32;3.40;;;;;;;23.37;42.83;102419.88;5068194;28;20108;-60
2022/07/18 00:50:03;;;;;;;4.80;3.42;;;;;;;23.37;43.04;102422.59;5068181;28;20025;-59
2022/07/18 00:52:28;;;;;;;5.93;3.35;;;;;;;23.36;42.78;102434.44;5068220;28;20035;-60
2022/07/18 00:54:54;;;;;;;6.00;3.95;;;;;;;23.35;42.98;102425.47;5068500;28;20077;-60
2022/07/18 00:57:19;;;;;;;5.07;3.38;;;;;;;23.14;42.75;102387.84;5066949;28;20037;-60
2022/07/18 01:02:28;;;;;;;4.80;3.40;;;;;;;23.23;42.53;102415.03;5071434;28;20077;-60
2022/07/18 01:04:54;;;;;;;5.53;3.33;;;;;;;23.30;42.83;102426.97;5080830;28;20482;-60
2022/07/18 01:07:19;;;;;;;4.85;3.70;;;;;;;23.30;42.76;102419.66;5073281;28;20025;-60
2022/07/18 01:09:44;;;;;;;4.80;3.55;;;;;;;23.30;42.62;102416.97;5068036;28;20031;-60
2022/07/18 01:12:10;;;;;;;5.63;3.67;;;;;;;23.10;42.67;102377.50;5085011;28;20028;-60
2022/07/18 01:14:35;;;;;;;4.97;3.60;;;;;;;23.23;42.67;102402.31;5086805;28;20020;-60
2022/07/18 01:17:01;;;;;;;4.88;3.33;;;;;;;23.27;42.56;102411.00;5086690;28;20076;-60
2022/07/18 01:19:26;;;;;;;5.40;3.55;;;;;;;23.24;42.52;102403.19;5078011;28;20092;-60
2022/07/18 01:21:51;;;;;;;5.13;3.30;;;;;;;23.25;42.67;102402.19;5066724;28;20021;-60
2022/07/18 01:24:16;;;;;;;5.10;3.42;;;;;;;23.23;42.53;102405.03;5066693;28;20029;-60
2022/07/18 01:26:42;;;;;;;4.90;3.20;;;;;;;23.01;42.48;102363.03;5066564;28;20032;-60
2022/07/18 01:29:07;;;;;;;4.38;3.42;;;;;;;23.23;42.51;102396.88;5067485;28;20036;-60
2022/07/18 01:31:33;;;;;;;4.63;3.10;;;;;;;23.00;42.41;102360.50;5067893;28;20494;-60
2022/07/18 01:33:59;;;;;;;4.82;3.20;;;;;;;22.98;42.71;102359.78;5066048;28;20090;-60
2022/07/18 01:36:24;;;;;;;5.43;3.97;;;;;;;23.18;42.54;102394.66;5073764;28;20031;-60
2022/07/18 01:38:50;;;;;;;4.88;3.63;;;;;;;23.02;42.51;102372.03;5085731;28;20044;-60
2022/07/18 01:41:15;;;;;;;5.90;3.70;;;;;;;23.06;42.51;102379.66;5087713;28;20058;-60
2022/07/18 01:43:41;;;;;;;4.15;2.85;;;;;;;23.18;42.49;102393.81;5087096;28;20025;-60
2022/07/18 01:46:09;;;;;;;4.97;3.20;;;;;;;22.95;42.50;102353.69;5087459;28;20024;-60
2022/07/18 01:48:39;;;;;;;4.30;3.00;;;;;;;23.17;42.50;102387.53;5085618;28;20028;-60
2022/07/18 01:51:05;;;;;;;4.50;3.13;;;;;;;22.95;42.32;102342.84;5086153;28;20024;-60
2022/07/18 01:53:30;;;;;;;4.32;3.33;;;;;;;23.16;42.38;102385.84;5085018;28;20032;-60
2022/07/18 01:55:55;;;;;;;5.65;3.30;;;;;;;22.98;42.54;102347.09;5087378;28;20087;-60
2022/07/18 01:58:20;;;;;;;5.07;3.50;;;;;;;22.95;42.41;102348.25;5086806;28;20055;-60
2022/07/18 02:00:46;;;;;;;4.25;3.15;;;;;;;23.14;42.50;102379.72;5085948;28;20028;-60
2022/07/18 02:03:11;;;;;;;4.70;3.50;;;;;;;23.14;42.43;102382.44;5085397;28;20020;-60
2022/07/18 02:05:36;;;;;;;6.72;3.67;;;;;;;23.13;42.17;102382.59;5086080;28;20036;-60
2022/07/18 02:08:02;;;;;;;4.90;3.58;;;;;;;23.12;42.29;102370.06;5086798;28;20028;-60
2022/07/18 02:10:28;;;;;;;4.30;2.78;;;;;;;22.88;42.30;102330.03;5078945;28;20378;-60
2022/07/18 02:12:53;;;;;;;5.35;3.40;;;;;;;22.92;42.50;102336.88;5048693;28;20048;-60
2022/07/18 02:15:18;;;;;;;4.30;3.17;;;;;;;23.09;42.44;102367.66;5065877;28;20032;-60
2022/07/18 02:17:44;;;;;;;4.95;3.38;;;;;;;23.08;42.29;102369.53;5065239;28;20025;-60
2022/07/18 02:20:11;;;;;;;4.13;3.55;;;;;;;23.08;42.31;102368.69;5066434;28;20040;-60
2022/07/18 02:22:36;;;;;;;4.85;3.35;;;;;;;23.06;42.41;102366.09;5065454;28;20036;-60
2022/07/18 02:25:03;;;;;;;5.03;3.65;;;;;;;23.06;42.37;102373.41;5066909;28;20021;-61
2022/07/18 02:27:28;;;;;;;6.38;4.07;;;;;;;23.03;42.32;102366.44;5065225;28;20029;-59
2022/07/18 02:29:54;;;;;;;4.97;3.70;;;;;;;23.03;42.37;102369.16;5066441;28;20043;-59
2022/07/18 02:32:19;;;;;;;5.30;3.33;;;;;;;23.02;42.34;102369.31;5048750;28;20182;-59
2022/07/18 02:34:44;;;;;;;5.45;3.45;;;;;;;23.01;41.93;102373.03;5065896;28;20017;-60
2022/07/18 02:37:10;;;;;;;4.75;3.50;;;;;;;22.92;42.13;102354.00;5065092;28;20493;-60
2022/07/18 02:39:36;;;;;;;4.80;3.15;;;;;;;23.01;42.23;102371.16;5066063;28;20024;-60
2022/07/18 02:42:01;;;;;;;4.63;3.60;;;;;;;22.81;42.10;102346.13;5065970;28;20024;-60
2022/07/18 02:44:26;;;;;;;4.82;3.35;;;;;;;22.82;42.05;102338.84;5048526;28;20028;-60
2022/07/18 02:46:52;;;;;;;6.13;4.03;;;;;;;22.99;42.29;102365.06;5064643;28;20122;-60
2022/07/18 02:49:26;;;;;;;4.22;3.50;;;;;;;22.98;42.25;102357.94;5064401;28;20017;-60
2022/07/18 02:51:58;;;;;;;4.47;3.08;;;;;;;22.98;42.28;102357.06;5064979;28;20024;-60
2022/07/18 02:54:24;;;;;;;5.22;3.65;;;;;;;22.97;41.86;102364.38;5066228;28;20029;-60
2022/07/18 02:56:50;;;;;;;5.45;3.53;;;;;;;22.95;42.08;102367.25;5064411;28;20029;-60
2022/07/18 02:59:15;;;;;;;4.82;3.55;;;;;;;22.96;42.12;102376.22;5064519;28;20453;-60
2022/07/18 03:01:40;;;;;;;4.78;3.92;;;;;;;22.75;42.16;102335.88;5064754;28;20025;-60
2022/07/18 03:04:06;;;;;;;4.35;3.42;;;;;;;22.94;42.04;102368.25;5065575;28;20055;-60
2022/07/18 03:06:31;;;;;;;7.10;3.72;;;;;;;22.93;41.93;102363.81;5064676;28;20024;-60
2022/07/18 03:08:56;;;;;;;5.35;3.28;;;;;;;22.92;41.82;102362.13;5065405;28;20078;-60
2022/07/18 03:11:22;;;;;;;4.55;3.20;;;;;;;22.91;42.11;102363.16;5079907;28;20025;-60
2022/07/18 03:13:47;;;;;;;4.28;3.55;;;;;;;22.91;42.14;102365.03;5085213;28;20059;-60
2022/07/18 03:16:12;;;;;;;4.63;3.40;;;;;;;22.89;41.81;102359.69;5086036;28;20021;-60
2022/07/18 03:18:38;;;;;;;6.05;3.80;;;;;;;22.89;41.75;102357.00;5083465;28;20028;-60
2022/07/18 03:21:03;;;;;;;4.45;3.17;;;;;;;22.87;41.70;102361.75;5085942;28;20499;-60
2022/07/18 03:23:29;;;;;;;4.32;3.53;;;;;;;22.86;41.77;102354.63;5085533;28;20033;-60
2022/07/18 03:25:54;;;;;;;4.65;3.40;;;;;;;22.86;42.08;102357.34;5084617;28;20055;-60
2022/07/18 03:28:19;;;;;;;5.10;3.58;;;;;;;22.86;42.08;102356.47;5085240;28;20036;-60
2022/07/18 03:30:45;;;;;;;4.72;3.70;;;;;;;22.85;41.76;102354.75;5085655;28;20016;-60
2022/07/18 03:33:10;;;;;;;5.15;3.80;;;;;;;22.61;41.78;102321.06;5083747;28;20063;-60
2022/07/18 03:35:35;;;;;;;4.60;3.67;;;;;;;22.83;41.61;102352.22;5084081;28;20028;-60
2022/07/18 03:38:00;;;;;;;5.18;3.38;;;;;;;22.80;41.63;102355.25;5083918;28;20103;-60
2022/07/18 03:40:26;;;;;;;4.05;3.15;;;;;;;22.81;41.80;102347.94;5084043;28;20021;-60
2022/07/18 03:42:51;;;;;;;5.97;3.60;;;;;;;22.81;42.06;102350.66;5084798;28;20107;-60
2022/07/18 03:45:16;;;;;;;5.10;3.45;;;;;;;22.63;41.61;102318.19;5084078;28;20020;-60
2022/07/18 03:47:41;;;;;;;5.55;3.80;;;;;;;22.79;42.06;102350.84;5083556;28;20055;-59
2022/07/18 03:50:07;;;;;;;4.68;3.40;;;;;;;22.79;41.66;102347.28;5084909;28;20029;-60
2022/07/18 03:52:33;;;;;;;4.82;3.90;;;;;;;22.78;41.69;102349.13;5085041;28;20119;-60
2022/07/18 03:55:01;;;;;;;5.40;3.42;;;;;;;22.54;41.83;102294.75;5083956;28;20028;-60
2022/07/18 03:57:27;;;;;;;6.28;4.13;;;;;;;22.77;41.61;102328.47;5085028;28;20393;-60
2022/07/18 03:59:52;;;;;;;6.63;4.07;;;;;;;22.76;41.59;102326.75;5085080;28;20033;-60
2022/07/18 04:02:17;;;;;;;5.65;3.20;;;;;;;22.71;42.01;102324.50;5085374;28;20360;-60
2022/07/18 04:04:42;;;;;;;4.40;3.55;;;;;;;22.74;42.01;102326.06;5084405;28;20504;-60
2022/07/18 04:07:08;;;;;;;4.32;3.67;;;;;;;22.75;41.73;102327.75;5083957;28;20030;-60
2022/07/18 04:09:33;;;;;;;5.15;3.80;;;;;;;22.75;41.89;102324.19;5100557;28;20027;-60
2022/07/18 04:11:58;;;;;;;5.30;3.53;;;;;;;22.75;41.87;102324.19;5065596;28;20051;-60
2022/07/18 04:14:23;;;;;;;6.03;3.55;;;;;;;22.53;41.81;102285.78;5063788;28;20033;-60
2022/07/18 04:16:49;;;;;;;4.80;3.65;;;;;;;22.57;41.82;102292.56;5068414;28;20039;-60
2022/07/18 04:19:14;;;;;;;5.40;3.60;;;;;;;22.50;41.82;102274.38;5068464;28;20033;-60
2022/07/18 04:21:39;;;;;;;4.18;3.05;;;;;;;22.52;42.04;102272.38;5069030;28;20028;-60
2022/07/18 04:24:05;;;;;;;5.15;3.95;;;;;;;22.49;41.78;102270.84;5069054;28;20025;-60
2022/07/18 04:26:30;;;;;;;5.18;3.75;;;;;;;22.70;41.97;102300.28;5068942;28;20032;-60
2022/07/18 04:28:55;;;;;;;5.07;3.30;;;;;;;22.69;41.71;102296.72;5068500;28;20056;-60
2022/07/18 04:31:20;;;;;;;4.32;3.10;;;;;;;22.67;41.94;102287.88;5067682;28;20036;-59
2022/07/18 04:33:46;;;;;;;5.15;3.80;;;;;;;22.68;41.71;102291.44;5068080;28;20088;-61
2022/07/18 04:36:11;;;;;;;4.97;4.20;;;;;;;22.69;41.69;102301.28;5068764;28;20024;-61
2022/07/18 04:38:37;;;;;;;4.80;3.55;;;;;;;22.68;42.01;102295.03;5068356;28;20108;-60
2022/07/18 04:41:04;;;;;;;5.68;3.70;;;;;;;22.68;41.92;102305.00;5068476;28;20102;-60
2022/07/18 04:43:29;;;;;;;5.70;3.92;;;;;;;22.65;41.94;102303.47;5068026;28;20045;-60
2022/07/18 04:45:54;;;;;;;7.10;3.88;;;;;;;22.65;41.65;102314.31;5067179;28;20116;-59
2022/07/18 04:48:20;;;;;;;5.05;3.33;;;;;;;22.66;41.91;102309.75;5066393;28;20478;-59
2022/07/18 04:50:45;;;;;;;5.70;3.90;;;;;;;22.66;41.75;102297.03;5067482;28;20017;-59
2022/07/18 04:53:10;;;;;;;4.53;3.33;;;;;;;22.63;41.85;102285.66;5068211;28;20104;-60
2022/07/18 04:55:36;;;;;;;5.15;3.95;;;;;;;22.41;41.93;102257.22;5068482;28;20433;-61
2022/07/18 04:58:01;;;;;;;5.18;3.40;;;;;;;22.65;42.09;102297.22;5066796;28;20072;-61
2022/07/18 05:00:27;;;;;;;6.10;3.85;;;;;;;22.43;42.09;102271.50;5067082;28;20389;-60
2022/07/18 05:02:54;;;;;;;5.90;3.97;;;;;;;22.43;42.33;102263.34;5068159;28;20032;-61
2022/07/18 05:05:20;;;;;;;5.85;3.92;;;;;;;22.61;41.96;102293.97;5066556;28;20040;-60
2022/07/18 05:07:46;;;;;;;4.85;3.47;;;;;;;22.63;42.19;102304.63;5049920;28;20022;-60
2022/07/18 05:10:13;;;;;;;4.90;3.50;;;;;;;22.39;42.10;102248.44;5056650;28;20012;-60
2022/07/18 05:12:40;;;;;;;4.95;3.60;;;;;;;22.64;42.14;102298.19;5069760;28;20433;-60
2022/07/18 05:15:08;;;;;;;4.95;3.95;;;;;;;22.46;42.18;102265.72;5087062;28;20024;-60
2022/07/18 05:17:33;;;;;;;4.47;3.50;;;;;;;22.64;42.03;102293.66;5086463;28;20024;-60
2022/07/18 05:19:59;;;;;;;4.97;3.42;;;;;;;22.39;42.45;102256.56;5085984;28;20291;-60
2022/07/18 05:22:24;;;;;;;5.85;4.20;;;;;;;22.66;42.26;102304.31;5087992;28;20025;-60
2022/07/18 05:24:50;;;;;;;6.13;3.83;;;;;;;22.65;42.94;102314.31;5087863;28;20028;-60
2022/07/18 05:27:15;;;;;;;7.65;4.20;;;;;;;22.66;42.44;102317.88;5085076;28;20020;-60
2022/07/18 05:29:41;;;;;;;5.03;3.55;;;;;;;22.46;42.81;102290.13;5087414;28;20048;-60
2022/07/18 05:32:07;;;;;;;4.68;3.88;;;;;;;22.67;42.44;102322.28;5087685;28;20036;-60
2022/07/18 05:34:32;;;;;;;4.68;3.42;;;;;;;22.67;42.66;102316.84;5086676;28;20054;-61
2022/07/18 05:36:58;;;;;;;4.75;3.55;;;;;;;22.49;42.77;102275.41;5087477;28;20020;-60
2022/07/18 05:39:23;;;;;;;5.32;3.33;;;;;;;22.68;42.76;102316.72;5087078;28;20389;-60
2022/07/18 05:41:48;;;;;;;5.68;3.38;;;;;;;22.47;43.10;102270.13;5085937;28;20020;-60
2022/07/18 05:44:13;;;;;;;5.38;3.03;;;;;;;22.61;43.02;102290.41;5087387;28;20048;-60
2022/07/18 05:46:39;;;;;;;4.53;3.20;;;;;;;22.70;43.08;102300.28;5071926;28;20056;-60
2022/07/18 05:49:04;;;;;;;5.22;3.75;;;;;;;22.70;43.17;102294.84;5082757;28;20639;-59
2022/07/18 05:51:29;;;;;;;4.82;3.28;;;;;;;22.71;42.98;102293.84;5066008;28;20028;-61
2022/07/18 05:53:54;;;;;;;5.30;3.53;;;;;;;22.71;43.36;102305.53;5074496;28;20017;-61
2022/07/18 05:56:20;;;;;;;4.88;2.90;;;;;;;22.71;43.10;102291.13;5069620;28;20047;-61
2022/07/18 05:58:45;;;;;;;5.72;3.20;;;;;;;22.69;43.41;102285.03;5086593;28;20036;-61
2022/07/18 06:01:10;;;;;;;5.22;3.65;;;;;;;22.53;43.36;102245.13;5087350;28;20028;-60
2022/07/18 06:03:36;;;;;;;5.55;3.15;;;;;;;22.72;43.46;102273.84;5069490;28;20024;-60
2022/07/18 06:06:01;;;;;;;5.00;3.38;;;;;;;22.72;43.51;102276.56;5066090;28;20081;-60
2022/07/18 06:08:26;;;;;;;4.35;3.15;;;;;;;22.72;43.61;102273.84;5066783;28;20029;-60
2022/07/18 06:10:52;;;;;;;4.57;3.47;;;;;;;22.72;43.33;102273.84;5065526;28;20016;-60
2022/07/18 06:13:17;;;;;;;4.68;3.25;;;;;;;22.73;43.64;102269.31;5065495;28;20021;-60
2022/07/18 06:15:42;;;;;;;5.60;3.05;;;;;;;22.71;43.46;102264.00;5065853;28;20046;-60
2022/07/18 06:18:07;;;;;;;5.38;3.50;;;;;;;22.73;43.54;102272.00;5048239;28;20056;-61
2022/07/18 06:20:33;;;;;;;6.13;3.22;;;;;;;22.69;43.43;102258.75;5082540;28;20051;-61
2022/07/18 06:22:58;;;;;;;6.32;3.75;;;;;;;22.71;43.46;102261.31;5086698;28;20024;-61
2022/07/18 06:25:23;;;;;;;4.95;3.28;;;;;;;22.53;43.68;102219.88;5086741;28;20023;-61
2022/07/18 06:27:48;;;;;;;4.38;2.75;;;;;;;22.52;43.26;102215.47;5086235;28;20058;-61
2022/07/18 06:30:14;;;;;;;4.78;2.83;;;;;;;22.73;43.32;102251.16;5086560;28;20027;-61
2022/07/18 06:32:39;;;;;;;4.03;2.88;;;;;;;22.69;43.15;102249.78;5086347;28;20078;-61
2022/07/18 06:35:06;;;;;;;5.30;2.85;;;;;;;22.73;43.31;102256.59;5084845;28;20024;-61
2022/07/18 06:37:32;;;;;;;5.55;2.92;;;;;;;22.74;42.70;102258.28;5068271;28;20416;-61
2022/07/18 06:39:57;;;;;;;5.50;2.97;;;;;;;22.74;42.91;102263.69;5084703;28;20028;-61
2022/07/18 06:42:22;;;;;;;5.78;3.00;;;;;;;22.75;42.81;102259.97;5085976;28;20031;-60
2022/07/18 06:44:47;;;;;;;3.95;2.42;;;;;;;22.75;42.84;102257.25;5085270;28;20021;-61
2022/07/18 06:47:13;;;;;;;3.63;2.38;;;;;;;22.75;42.44;102256.41;5086005;28;20072;-60
2022/07/18 06:49:38;;;;;;;4.90;3.05;;;;;;;22.76;42.76;102252.69;5084309;28;20080;-60
2022/07/18 06:52:03;;;;;;;4.93;2.95;;;;;;;22.56;42.55;102222.28;5086323;28;20028;-60
2022/07/18 06:54:29;;;;;;;3.85;2.90;;;;;;;22.58;42.34;102223.78;5071541;28;20064;-61
2022/07/18 06:56:55;;;;;;;4.40;2.72;;;;;;;22.51;42.39;102211.03;5066003;28;20032;-60
2022/07/18 06:59:20;;;;;;;4.30;2.85;;;;;;;22.75;42.15;102251.00;5064183;28;20036;-60
2022/07/18 07:01:46;;;;;;;5.20;2.78;;;;;;;22.81;42.27;102255.75;5064228;28;20028;-60
2022/07/18 07:04:11;;;;;;;4.28;2.53;;;;;;;22.81;42.18;102259.34;5063897;28;20032;-60
2022/07/18 07:06:38;;;;;;;3.97;2.25;;;;;;;22.81;42.27;102270.19;5065976;28;20020;-61
2022/07/18 07:09:04;;;;;;;3.45;2.35;;;;;;;22.57;42.11;102221.25;5065530;28;20029;-61
2022/07/18 07:11:30;;;;;;;3.45;2.00;;;;;;;22.77;42.28;102252.53;5066081;28;20025;-61
2022/07/18 07:13:55;;;;;;;4.50;2.78;;;;;;;22.83;41.75;102256.47;5065432;28;20056;-61
2022/07/18 07:16:20;;;;;;;2.97;2.10;;;;;;;22.83;42.00;102260.00;5065973;28;20045;-61
2022/07/18 07:18:46;;;;;;;4.32;2.72;;;;;;;22.78;41.89;102250.69;5063696;28;20017;-60
2022/07/18 07:21:11;;;;;;;5.72;2.78;;;;;;;22.86;42.10;102258.84;5065546;28;20035;-60
2022/07/18 07:23:36;;;;;;;4.20;2.03;;;;;;;22.68;42.00;102235.38;5065271;28;20084;-60
2022/07/18 07:26:02;;;;;;;3.58;2.05;;;;;;;22.86;42.04;102261.56;5064407;28;20028;-60
2022/07/18 07:28:27;;;;;;;3.80;2.17;;;;;;;22.68;42.18;102237.22;5047130;28;20048;-60
2022/07/18 07:30:52;;;;;;;4.20;2.80;;;;;;;22.88;42.09;102273.09;5064277;28;20032;-60
2022/07/18 07:33:18;;;;;;;4.35;2.53;;;;;;;22.88;42.04;102278.50;5063428;28;20037;-60
2022/07/18 07:35:43;;;;;;;3.38;2.30;;;;;;;22.88;42.11;102283.94;5064412;28;20025;-60
2022/07/18 07:38:08;;;;;;;4.93;2.10;;;;;;;22.88;42.14;102264.94;5046947;28;20021;-60
2022/07/18 07:40:34;;;;;;;3.10;2.08;;;;;;;22.89;41.95;102269.34;5065523;28;20035;-61
2022/07/18 07:43:11;;;;;;;3.75;2.00;;;;;;;22.69;42.13;102233.53;5063869;28;20033;-60
2022/07/18 07:45:37;;;;;;;4.10;2.20;;;;;;;22.91;42.15;102270.09;5064095;28;20021;-60
2022/07/18 07:48:03;;;;;;;3.00;1.83;;;;;;;22.72;42.04;102238.59;5063741;28;20064;-60
2022/07/18 07:50:29;;;;;;;3.08;1.80;;;;;;;22.90;41.94;102258.41;5064139;28;20013;-60
2022/07/18 07:52:55;;;;;;;3.70;2.13;;;;;;;22.89;41.90;102264.78;5064923;28;20039;-60
2022/07/18 07:55:20;;;;;;;4.03;1.90;;;;;;;22.74;41.89;102238.47;5084306;28;20021;-60
2022/07/18 07:57:46;;;;;;;2.88;1.88;;;;;;;22.76;41.90;102239.13;5083768;28;20477;-60
2022/07/18 08:00:11;;;;;;;4.13;2.15;;;;;;;22.95;41.97;102260.63;5083537;28;20032;-60
2022/07/18 08:02:37;;;;;;;2.97;1.88;;;;;;;22.74;41.86;102223.03;5084004;28;20028;-60
2022/07/18 08:05:03;;;;;;;3.08;1.90;;;;;;;22.98;41.75;102262.13;5083459;28;20024;-60
2022/07/18 08:07:28;;;;;;;3.90;1.92;;;;;;;22.77;41.82;102220.00;5085059;28;20050;-60
2022/07/18 08:09:53;;;;;;;3.63;2.15;;;;;;;23.03;42.14;102257.09;5083759;28;20021;-60
2022/07/18 08:12:19;;;;;;;3.22;1.95;;;;;;;23.04;41.94;102253.38;5066837;28;20033;-59
2022/07/18 08:14:44;;;;;;;2.58;1.83;;;;;;;23.07;41.89;102255.75;5066774;28;20023;-60
2022/07/18 08:17:09;;;;;;;3.40;1.88;;;;;;;22.88;41.98;102205.28;5084842;28;20055;-60
2022/07/18 08:19:34;;;;;;;2.85;1.77;;;;;;;22.90;41.82;102217.72;5083081;28;20021;-60
2022/07/18 08:22:00;;;;;;;2.22;1.63;;;;;;;23.12;42.05;102235.25;5083833;28;20028;-60
2022/07/18 08:24:25;;;;;;;3.15;1.90;;;;;;;23.14;42.29;102232.38;5083577;28;20024;-60
2022/07/18 08:26:50;;;;;;;3.70;2.10;;;;;;;23.15;42.15;102234.94;5066783;28;20024;-60
2022/07/18 08:29:16;;;;;;;2.80;1.58;;;;;;;23.18;42.25;102231.03;5084586;28;20099;-60
2022/07/18 08:31:41;;;;;;;2.85;1.70;;;;;;;22.99;42.72;102199.59;5084980;28;20028;-60
2022/07/18 08:34:06;;;;;;;2.22;1.70;;;;;;;23.14;42.75;102222.34;5083133;28;20054;-60
2022/07/18 08:36:32;;;;;;;3.22;2.17;;;;;;;23.01;42.41;102200.28;5084889;28;20027;-60
2022/07/18 08:38:57;;;;;;;3.25;1.90;;;;;;;23.05;42.31;102198.94;5084390;28;20107;-60
2022/07/18 08:41:23;;;;;;;3.05;2.10;;;;;;;23.23;42.54;102228.66;5085011;28;20029;-60
2022/07/18 08:43:49;;;;;;;2.85;1.60;;;;;;;23.24;42.59;102224.94;5083003;28;20258;-60
2022/07/18 08:46:19;;;;;;;2.35;1.50;;;;;;;23.05;42.45;102188.09;5083502;28;20071;-60
2022/07/18 08:48:45;;;;;;;3.05;1.80;;;;;;;23.28;42.74;102225.44;5083906;28;20032;-60
2022/07/18 08:51:10;;;;;;;2.60;1.60;;;;;;;23.05;43.06;102190.78;5084596;28;20018;-59
2022/07/18 08:53:37;;;;;;;1.77;1.35;;;;;;;23.30;43.16;102226.16;5076123;28;20025;-60
2022/07/18 08:56:03;;;;;;;2.97;1.70;;;;;;;23.30;42.85;102224.28;5063460;28;20047;-60
2022/07/18 08:58:29;;;;;;;2.22;1.42;;;;;;;23.31;42.93;102225.13;5063109;28;20028;-61
2022/07/18 09:00:54;;;;;;;4.78;1.83;;;;;;;23.33;43.16;102228.53;5064541;28;20032;-60
2022/07/18 09:03:19;;;;;;;1.92;1.38;;;;;;;23.32;42.99;102233.13;5067691;28;20036;-60
2022/07/18 09:05:45;;;;;;;1.77;1.40;;;;;;;23.13;43.13;102204.38;5067034;28;20048;-60
2022/07/18 09:08:16;;;;;;;2.83;1.73;;;;;;;23.36;42.89;102236.31;5066639;28;20394;-60
2022/07/18 09:10:51;;;;;;;3.42;1.60;;;;;;;23.36;43.04;102233.59;5068031;28;20028;-60
2022/07/18 09:13:17;;;;;;;2.63;1.50;;;;;;;23.38;42.96;102228.88;5067722;28;20455;-60
2022/07/18 09:15:57;;;;;;;3.70;1.75;;;;;;;23.38;42.99;102228.88;5067984;28;20049;-60
2022/07/18 09:18:39;;;;;;;1.58;1.35;;;;;;;23.39;42.92;102225.13;5067417;28;20052;-60
2022/07/18 09:21:10;;;;;;;3.13;1.60;;;;;;;23.39;43.04;102228.69;5066574;28;20028;-59
2022/07/18 09:23:41;;;;;;;2.05;1.35;;;;;;;23.40;43.00;102219.53;5067650;28;20071;-60
2022/07/18 09:26:07;;;;;;;2.78;1.45;;;;;;;23.41;42.89;102220.41;5066659;28;20035;-59
2022/07/18 09:28:53;;;;;;;3.20;1.40;;;;;;;23.43;43.06;102229.22;5066301;28;20025;-59
2022/07/18 09:31:20;;;;;;;2.58;1.40;;;;;;;23.43;43.03;102232.78;5067983;28;20036;-60
2022/07/18 09:33:59;;;;;;;2.10;1.50;;;;;;;23.45;42.85;102227.19;5066110;28;20025;-60
2022/07/18 09:36:24;;;;;;;;;;;;;;;23.44;42.99;102222.78;5066994;28;20039;-60
2022/07/18 09:38:50;;;;;;;2.38;1.40;;;;;;;23.45;42.96;102214.47;5065647;28;19909;-60
2022/07/18 09:41:15;;;;;;;1.90;1.20;;;;;;;23.47;42.93;102216.16;5066305;28;20084;-60
2022/07/18 09:43:41;;;;;;;2.08;1.45;;;;;;;23.44;42.96;102212.75;5048947;28;20032;-60
2022/07/18 09:46:07;;;;;;;3.22;1.52;;;;;;;23.48;42.96;102212.44;5066019;28;20044;-61
2022/07/18 09:48:33;;;;;;;4.18;1.63;;;;;;;23.49;43.17;102212.28;5048972;28;20032;-60
2022/07/18 09:51:06;;;;;;;2.00;1.30;;;;;;;23.50;42.96;102208.53;5065336;28;20032;-60
2022/07/18 09:53:40;;;;;;;2.53;1.70;;;;;;;23.50;42.90;102211.25;5072314;28;20031;-59
2022/07/18 09:56:08;;;;;;;2.63;1.48;;;;;;;23.50;42.64;102202.28;5069231;28;20048;-60
2022/07/18 09:58:54;;;;;;;1.95;1.42;;;;;;;23.55;42.77;102205.31;5085834;28;20030;-60
2022/07/18 10:01:20;;;;;;;1.83;1.52;;;;;;;23.55;42.89;102198.03;5086984;28;20049;-60
2022/07/18 10:03:45;;;;;;;2.20;1.55;;;;;;;23.56;42.83;102198.88;5085437;28;20036;-60
2022/07/18 10:06:11;;;;;;;2.45;1.58;;;;;;;23.57;42.79;102211.41;5087127;28;20020;-60
2022/07/18 10:08:37;;;;;;;2.17;1.50;;;;;;;23.58;42.71;102202.28;5085702;28;20024;-61
2022/07/18 10:11:05;;;;;;;3.55;1.75;;;;;;;23.57;42.85;102198.69;5085843;28;20017;-60
2022/07/18 10:13:32;;;;;;;2.88;1.77;;;;;;;23.61;42.76;102210.06;5084704;28;20092;-60
2022/07/18 10:15:58;;;;;;;2.65;1.23;;;;;;;23.62;42.77;102195.50;5085698;28;20024;-60
2022/07/18 10:18:26;;;;;;;2.78;1.63;;;;;;;23.63;42.73;102194.47;5085167;28;20032;-60
2022/07/18 10:20:55;;;;;;;2.92;1.65;;;;;;;23.64;42.70;102204.31;5086736;28;20024;-60
2022/07/18 10:23:23;;;;;;;1.52;1.10;;;;;;;23.65;42.69;102195.16;5086795;28;20032;-60
2022/07/18 10:26:12;;;;;;;2.30;1.50;;;;;;;23.67;42.64;102198.56;5085564;28;20555;-60
2022/07/18 10:29:00;;;;;;;;;;;;;;;23.67;42.50;102201.28;5087072;28;20037;-60
2022/07/18 10:31:39;;;;;;;2.25;1.45;;;;;;;23.69;42.72;102197.38;5086639;28;19908;-60
2022/07/18 10:34:10;;;;;;;;;;;;;;;23.67;42.68;102195.88;5085210;28;20089;-60
2022/07/18 10:36:51;;;;;;;2.13;1.30;;;;;;;23.70;42.79;102192.78;5086521;28;19915;-60
2022/07/18 10:39:23;;;;;;;2.15;1.35;;;;;;;23.69;42.84;102196.53;5086093;28;20051;-60
2022/07/18 10:41:52;;;;;;;2.13;1.52;;;;;;;23.70;42.68;102192.78;5084850;28;20032;-60
2022/07/18 10:44:23;;;;;;;;;;;;;;;23.71;42.67;102185.53;5086791;28;20024;-60
2022/07/18 10:47:03;;;;;;;2.15;1.40;;;;;;;23.72;42.58;102182.63;5086137;28;19920;-60
2022/07/18 10:49:47;;;;;;;1.83;1.30;;;;;;;23.75;42.88;102181.44;5085638;28;20046;-60
2022/07/18 10:52:28;;;;;;;2.15;1.35;;;;;;;23.76;42.47;102178.53;5086023;28;20028;-61
2022/07/18 10:55:05;;;;;;;3.05;1.30;;;;;;;23.78;42.65;102178.38;5067045;28;20025;-59
2022/07/18 10:57:52;;;;;;;1.63;1.23;;;;;;;23.78;42.87;102181.09;5065816;28;20039;-59
2022/07/18 11:00:38;;;;;;;4.35;1.58;;;;;;;23.78;42.77;102181.94;5061845;28;20068;-59
2022/07/18 11:03:08;;;;;;;2.22;1.45;;;;;;;23.77;42.47;102177.53;5065722;28;20044;-60
2022/07/18 11:05:51;;;;;;;2.45;1.35;;;;;;;23.78;42.73;102184.66;5064393;28;20032;-59
2022/07/18 11:08:23;;;;;;;2.15;1.50;;;;;;;23.54;42.54;102135.75;5064546;28;20104;-59
2022/07/18 11:10:54;;;;;;;2.55;1.13;;;;;;;23.76;42.51;102175.84;5064304;28;20032;-60
2022/07/18 11:13:27;;;;;;;2.90;1.80;;;;;;;23.75;42.71;102174.16;5065392;28;20029;-59
2022/07/18 11:16:00;;;;;;;2.13;1.20;;;;;;;23.57;42.85;102143.53;5065526;28;20028;-60
2022/07/18 11:18:25;;;;;;;2.75;1.65;;;;;;;23.77;42.85;102171.25;5063829;28;20359;-60
2022/07/18 11:20:51;;;;;;;2.05;1.10;;;;;;;23.77;42.81;102168.53;5064199;28;20039;-60
2022/07/18 11:23:19;;;;;;;2.08;1.20;;;;;;;23.56;42.66;102128.28;5064065;28;20044;-60
2022/07/18 11:25:49;;;;;;;3.88;1.35;;;;;;;23.61;42.90;102125.91;5063762;28;20021;-60
2022/07/18 11:28:14;;;;;;;1.48;1.10;;;;;;;23.64;42.81;102118.25;5064027;28;20025;-60